createdAt,value
2022-10-29T00:00:28.101Z,8.05
2022-10-29T00:01:31.606Z,8.35
2022-10-29T00:02:33.996Z,7.53
2022-10-29T00:03:38.148Z,7.47
2022-10-29T00:04:40.516Z,7.35
2022-10-29T00:05:43.945Z,7.25
2022-10-29T00:06:51.358Z,8.30
2022-10-29T00:07:55.049Z,7.40
2022-10-29T00:08:57.531Z,7.10
2022-10-29T00:10:00.990Z,6.70
2022-10-29T00:11:08.105Z,6.03
2022-10-29T00:12:11.522Z,6.50
2022-10-29T00:13:13.791Z,6.40
2022-10-29T00:14:17.958Z,6.07
2022-10-29T00:15:21.695Z,6.32
2022-10-29T00:16:27.740Z,5.50
2022-10-29T00:17:30.152Z,5.60
2022-10-29T00:18:33.419Z,4.53
2022-10-29T00:19:35.787Z,4.27
2022-10-29T00:20:39.096Z,4.57
2022-10-29T00:21:41.397Z,5.00
2022-10-29T00:22:44.870Z,4.03
2022-10-29T00:23:47.797Z,3.35
2022-10-29T00:24:51.133Z,4.18
2022-10-29T00:25:56.983Z,3.65
2022-10-29T00:27:00.405Z,3.55
2022-10-29T00:28:02.528Z,3.80
2022-10-29T00:29:05.809Z,3.70
2022-10-29T00:30:09.348Z,4.30
2022-10-29T00:31:16.360Z,4.07
2022-10-29T00:32:18.722Z,4.28
2022-10-29T00:33:22.632Z,4.45
2022-10-29T00:34:24.995Z,3.70
2022-10-29T00:35:28.325Z,4.47
2022-10-29T00:36:30.850Z,4.10
2022-10-29T00:37:34.157Z,5.15
2022-10-29T00:38:36.721Z,3.60
2022-10-29T00:39:40.229Z,3.90
2022-10-29T00:40:42.341Z,3.70
2022-10-29T00:41:45.814Z,4.43
2022-10-29T00:42:48.361Z,4.32
2022-10-29T00:43:54.691Z,4.15
2022-10-29T00:44:57.052Z,3.83
2022-10-29T00:46:04.314Z,4.60
2022-10-29T00:47:19.585Z,4.05
2022-10-29T00:48:24.721Z,3.72
2022-10-29T00:49:27.784Z,3.55
2022-10-29T00:50:31.072Z,3.55
2022-10-29T00:51:33.404Z,3.80
2022-10-29T00:52:42.405Z,3.60
2022-10-29T00:53:49.210Z,3.10
2022-10-29T00:54:55.382Z,3.42
2022-10-29T00:55:59.288Z,3.05
2022-10-29T00:57:08.429Z,3.35
2022-10-29T00:58:11.494Z,2.90
2022-10-29T00:59:17.688Z,3.42
2022-10-29T01:00:22.782Z,3.10
2022-10-29T01:01:25.246Z,3.20
2022-10-29T01:02:33.532Z,3.17
2022-10-29T01:03:35.841Z,3.28
2022-10-29T01:04:40.481Z,3.53
2022-10-29T01:05:44.487Z,2.88
2022-10-29T01:06:48.933Z,2.97
2022-10-29T01:07:51.182Z,3.33
2022-10-29T01:08:55.046Z,3.05
2022-10-29T01:09:57.587Z,3.40
2022-10-29T01:11:13.292Z,2.92
2022-10-29T01:12:29.911Z,2.47
2022-10-29T01:13:49.217Z,2.70
2022-10-29T01:15:02.248Z,2.72
2022-10-29T01:16:15.851Z,3.00
2022-10-29T01:17:29.029Z,3.03
2022-10-29T01:18:42.318Z,3.08
2022-10-29T01:20:15.854Z,2.72
2022-10-29T01:21:54.947Z,3.20
2022-10-29T01:23:10.819Z,3.05
2022-10-29T01:24:31.416Z,2.53
2022-10-29T01:25:58.910Z,2.70
2022-10-29T01:27:33.609Z,3.70
2022-10-29T01:28:53.754Z,2.63
2022-10-29T01:30:07.044Z,2.33
2022-10-29T01:31:23.732Z,2.75
2022-10-29T01:32:31.521Z,2.90
2022-10-29T01:33:40.651Z,2.58
2022-10-29T01:34:51.382Z,2.45
2022-10-29T01:36:05.308Z,3.08
2022-10-29T01:37:15.137Z,2.75
2022-10-29T01:38:29.044Z,3.20
2022-10-29T01:39:40.559Z,2.83
2022-10-29T01:40:55.043Z,2.67
2022-10-29T01:42:06.144Z,3.83
2022-10-29T01:43:14.882Z,2.63
2022-10-29T01:44:30.064Z,2.60
2022-10-29T01:45:38.308Z,2.55
2022-10-29T01:46:48.378Z,2.83
2022-10-29T01:47:58.071Z,2.60
2022-10-29T01:49:06.366Z,2.88
2022-10-29T01:50:14.125Z,2.20
2022-10-29T01:51:20.480Z,2.90
2022-10-29T01:52:24.392Z,2.75
2022-10-29T01:53:28.511Z,3.03
2022-10-29T01:54:31.847Z,2.67
2022-10-29T01:55:35.440Z,2.63
2022-10-29T01:56:38.859Z,2.60
2022-10-29T01:57:41.168Z,2.70
2022-10-29T01:58:48.871Z,2.67
2022-10-29T01:59:56.038Z,2.97
2022-10-29T02:01:08.225Z,3.10
2022-10-29T02:02:23.044Z,3.33
2022-10-29T02:03:35.780Z,2.53
2022-10-29T02:05:02.923Z,3.33
2022-10-29T02:06:11.507Z,3.42
2022-10-29T02:07:24.011Z,2.47
2022-10-29T02:08:35.267Z,2.72
2022-10-29T02:09:45.204Z,2.75
2022-10-29T02:10:55.086Z,2.97
2022-10-29T02:12:01.996Z,2.80
2022-10-29T02:13:05.519Z,2.92
2022-10-29T02:14:13.103Z,3.50
2022-10-29T02:15:20.877Z,2.42
2022-10-29T02:16:25.165Z,2.80
2022-10-29T02:17:32.255Z,3.15
2022-10-29T02:18:41.294Z,2.70
2022-10-29T02:19:44.967Z,2.92
2022-10-29T02:20:47.888Z,3.13
2022-10-29T02:21:52.669Z,2.72
2022-10-29T02:22:55.380Z,3.22
2022-10-29T02:23:58.851Z,2.90
2022-10-29T02:25:02.165Z,3.83
2022-10-29T02:26:05.621Z,3.10
2022-10-29T02:27:08.337Z,3.90
2022-10-29T02:28:11.596Z,3.25
2022-10-29T02:29:13.919Z,3.08
2022-10-29T02:30:17.909Z,3.10
2022-10-29T02:31:20.005Z,3.10
2022-10-29T02:32:23.241Z,2.83
2022-10-29T02:33:27.100Z,3.10
2022-10-29T02:34:30.475Z,3.28
2022-10-29T02:35:32.750Z,3.23
2022-10-29T02:36:35.968Z,2.63
2022-10-29T02:37:38.188Z,3.17
2022-10-29T02:38:41.518Z,3.10
2022-10-29T02:39:43.656Z,3.53
2022-10-29T02:40:46.812Z,3.20
2022-10-29T02:41:49.364Z,3.30
2022-10-29T02:42:52.838Z,3.33
2022-10-29T02:43:55.222Z,2.97
2022-10-29T02:44:58.436Z,2.40
2022-10-29T02:46:14.704Z,3.23
2022-10-29T02:47:18.013Z,3.05
2022-10-29T02:48:20.273Z,2.97
2022-10-29T02:49:25.139Z,3.17
2022-10-29T02:50:27.754Z,2.90
2022-10-29T02:51:31.054Z,2.90
2022-10-29T02:52:33.211Z,2.92
2022-10-29T02:53:36.494Z,3.22
2022-10-29T02:54:39.468Z,3.08
2022-10-29T02:55:43.471Z,2.90
2022-10-29T02:56:45.839Z,2.77
2022-10-29T02:57:49.220Z,2.67
2022-10-29T02:58:51.609Z,2.85
2022-10-29T02:59:54.791Z,3.03
2022-10-29T03:00:57.075Z,2.53
2022-10-29T03:02:00.706Z,2.33
2022-10-29T03:03:03.013Z,2.85
2022-10-29T03:04:06.567Z,2.78
2022-10-29T03:05:10.896Z,2.92
2022-10-29T03:06:14.862Z,3.05
2022-10-29T03:07:16.964Z,2.90
2022-10-29T03:08:20.346Z,3.60
2022-10-29T03:09:22.559Z,2.58
2022-10-29T03:10:25.789Z,2.53
2022-10-29T03:11:28.155Z,3.10
2022-10-29T03:12:31.845Z,2.88
2022-10-29T03:13:34.036Z,2.50
2022-10-29T03:14:37.358Z,3.20
2022-10-29T03:15:39.596Z,2.97
2022-10-29T03:16:42.929Z,3.60
2022-10-29T03:17:45.209Z,2.73
2022-10-29T03:18:48.451Z,2.83
2022-10-29T03:19:50.897Z,2.75
2022-10-29T03:20:55.463Z,2.63
2022-10-29T03:21:57.572Z,3.25
2022-10-29T03:23:00.825Z,3.08
2022-10-29T03:24:03.349Z,2.88
2022-10-29T03:25:07.519Z,2.42
2022-10-29T03:26:10.840Z,2.97
2022-10-29T03:27:14.233Z,2.97
2022-10-29T03:28:16.408Z,2.60
2022-10-29T03:29:19.765Z,2.60
2022-10-29T03:30:21.895Z,3.15
2022-10-29T03:31:25.246Z,3.15
2022-10-29T03:32:27.496Z,3.47
2022-10-29T03:33:30.898Z,3.08
2022-10-29T03:34:33.122Z,3.60
2022-10-29T03:35:36.509Z,3.00
2022-10-29T03:36:41.282Z,3.50
2022-10-29T03:37:43.656Z,2.88
2022-10-29T03:38:46.826Z,3.53
2022-10-29T03:39:48.952Z,3.60
2022-10-29T03:40:52.322Z,3.15
2022-10-29T03:41:54.398Z,3.30
2022-10-29T03:42:58.082Z,2.45
2022-10-29T03:44:00.498Z,3.28
2022-10-29T03:45:03.746Z,3.35
2022-10-29T03:46:06.822Z,3.28
2022-10-29T03:47:10.214Z,3.55
2022-10-29T03:48:12.394Z,3.47
2022-10-29T03:49:15.699Z,3.60
2022-10-29T03:50:18.069Z,3.60
2022-10-29T03:51:21.182Z,3.13
2022-10-29T03:52:24.741Z,3.42
2022-10-29T03:53:28.582Z,3.00
2022-10-29T03:54:30.720Z,3.20
2022-10-29T03:55:34.016Z,3.60
2022-10-29T03:56:36.195Z,3.70
2022-10-29T03:57:39.355Z,3.45
2022-10-29T03:58:41.474Z,2.90
2022-10-29T03:59:47.113Z,3.60
2022-10-29T04:00:56.965Z,3.08
2022-10-29T04:02:00.358Z,2.83
2022-10-29T04:03:02.669Z,3.35
2022-10-29T04:04:06.252Z,3.22
2022-10-29T04:05:09.333Z,3.42
2022-10-29T04:06:14.274Z,3.60
2022-10-29T04:07:16.517Z,3.00
2022-10-29T04:08:21.468Z,4.10
2022-10-29T04:09:23.854Z,3.45
2022-10-29T04:10:27.907Z,3.67
2022-10-29T04:11:30.047Z,3.30
2022-10-29T04:12:33.900Z,3.50
2022-10-29T04:13:36.266Z,3.67
2022-10-29T04:14:44.506Z,3.13
2022-10-29T04:15:48.350Z,2.95
2022-10-29T04:16:51.790Z,3.40
2022-10-29T04:17:54.567Z,3.50
2022-10-29T04:18:58.085Z,3.28
2022-10-29T04:20:00.296Z,3.72
2022-10-29T04:27:01.770Z,3.65
2022-10-29T04:29:23.881Z,3.42
2022-10-29T04:30:26.551Z,3.72
2022-10-29T04:31:29.937Z,3.85
2022-10-29T04:32:32.246Z,3.83
2022-10-29T04:33:35.780Z,3.47
2022-10-29T04:34:37.934Z,3.40
2022-10-29T04:35:41.386Z,3.80
2022-10-29T04:36:44.868Z,3.60
2022-10-29T04:37:47.125Z,3.95
2022-10-29T04:38:53.121Z,4.43
2022-10-29T04:39:55.475Z,4.32
2022-10-29T04:41:00.290Z,3.45
2022-10-29T04:42:02.348Z,3.50
2022-10-29T04:43:05.589Z,3.92
2022-10-29T04:44:07.744Z,3.90
2022-10-29T04:45:11.517Z,3.88
2022-10-29T04:46:13.585Z,3.70
2022-10-29T04:47:16.955Z,3.38
2022-10-29T04:48:19.622Z,3.72
2022-10-29T04:49:22.945Z,3.90
2022-10-29T04:50:25.321Z,3.40
2022-10-29T04:51:29.212Z,3.25
2022-10-29T04:52:31.590Z,3.50
2022-10-29T04:53:34.980Z,3.28
2022-10-29T04:54:38.749Z,3.20
2022-10-29T04:55:42.513Z,3.45
2022-10-29T04:56:44.876Z,3.55
2022-10-29T04:57:50.961Z,3.60
2022-10-29T04:58:53.282Z,3.30
2022-10-29T04:59:56.541Z,3.53
2022-10-29T05:01:01.930Z,3.15
2022-10-29T05:02:05.279Z,3.38
2022-10-29T05:03:08.107Z,3.80
2022-10-29T05:04:11.636Z,3.78
2022-10-29T05:05:14.049Z,3.90
2022-10-29T05:06:17.362Z,4.00
2022-10-29T05:07:19.525Z,3.60
2022-10-29T05:08:22.824Z,3.33
2022-10-29T05:09:24.903Z,4.30
2022-10-29T05:10:32.070Z,3.22
2022-10-29T05:11:34.340Z,3.40
2022-10-29T05:12:38.161Z,3.70
2022-10-29T05:13:40.453Z,3.50
2022-10-29T05:14:43.642Z,3.75
2022-10-29T05:15:53.039Z,4.20
2022-10-29T05:16:56.982Z,3.70
2022-10-29T05:17:59.394Z,3.05
2022-10-29T05:19:03.040Z,3.20
2022-10-29T05:20:06.242Z,3.50
2022-10-29T05:21:09.620Z,3.60
2022-10-29T05:22:11.770Z,3.47
2022-10-29T05:23:15.334Z,3.30
2022-10-29T05:24:17.439Z,3.83
2022-10-29T05:25:20.719Z,4.07
2022-10-29T05:26:25.598Z,4.07
2022-10-29T05:27:27.914Z,3.17
2022-10-29T05:28:31.201Z,3.63
2022-10-29T05:29:33.661Z,4.13
2022-10-29T05:30:37.880Z,4.57
2022-10-29T05:31:40.025Z,3.30
2022-10-29T05:32:43.468Z,4.00
2022-10-29T05:33:45.789Z,4.15
2022-10-29T05:34:49.018Z,3.78
2022-10-29T05:35:51.374Z,3.65
2022-10-29T05:36:54.983Z,4.43
2022-10-29T05:37:57.160Z,3.97
2022-10-29T05:39:00.454Z,3.50
2022-10-29T05:40:02.649Z,3.75
2022-10-29T05:41:06.194Z,3.50
2022-10-29T05:42:11.828Z,3.80
2022-10-29T05:43:16.408Z,3.60
2022-10-29T05:44:18.641Z,3.70
2022-10-29T05:45:22.303Z,3.47
2022-10-29T05:46:24.868Z,3.60
2022-10-29T05:47:28.127Z,3.83
2022-10-29T05:48:30.501Z,4.03
2022-10-29T05:49:33.975Z,3.55
2022-10-29T05:50:36.520Z,3.90
2022-10-29T05:51:39.782Z,3.67
2022-10-29T05:52:41.993Z,4.00
2022-10-29T05:53:45.389Z,3.50
2022-10-29T05:54:47.576Z,3.40
2022-10-29T05:55:50.891Z,3.22
2022-10-29T05:56:53.228Z,3.60
2022-10-29T05:58:02.409Z,3.10
2022-10-29T05:59:04.733Z,3.30
2022-10-29T06:00:09.797Z,3.45
2022-10-29T06:01:12.487Z,3.90
2022-10-29T06:02:15.930Z,3.78
2022-10-29T06:03:22.311Z,3.72
2022-10-29T06:04:25.580Z,3.10
2022-10-29T06:05:27.970Z,2.97
2022-10-29T06:06:31.332Z,3.50
2022-10-29T06:07:33.707Z,3.42
2022-10-29T06:08:37.206Z,3.50
2022-10-29T06:09:39.615Z,3.42
2022-10-29T06:10:42.945Z,4.20
2022-10-29T06:11:45.206Z,3.78
2022-10-29T06:12:48.470Z,3.17
2022-10-29T06:13:55.264Z,3.08
2022-10-29T06:14:58.553Z,3.95
2022-10-29T06:16:02.436Z,3.42
2022-10-29T06:17:04.700Z,3.95
2022-10-29T06:18:07.983Z,3.72
2022-10-29T06:19:10.367Z,3.47
2022-10-29T06:20:15.257Z,3.65
2022-10-29T06:21:18.609Z,3.60
2022-10-29T06:22:21.889Z,3.55
2022-10-29T06:23:25.112Z,3.50
2022-10-29T06:24:27.455Z,3.33
2022-10-29T06:25:30.648Z,3.35
2022-10-29T06:26:33.896Z,3.45
2022-10-29T06:27:37.516Z,3.60
2022-10-29T06:28:39.791Z,3.42
2022-10-29T06:29:44.413Z,3.17
2022-10-29T06:30:49.569Z,3.50
2022-10-29T06:31:51.893Z,3.10
2022-10-29T06:32:55.339Z,3.20
2022-10-29T06:33:57.795Z,3.38
2022-10-29T06:35:01.053Z,3.35
2022-10-29T06:36:03.391Z,3.70
2022-10-29T06:37:06.642Z,3.15
2022-10-29T06:38:11.120Z,3.75
2022-10-29T06:39:15.648Z,3.25
2022-10-29T06:40:18.037Z,3.37
2022-10-29T06:41:25.232Z,3.47
2022-10-29T06:42:27.393Z,3.20
2022-10-29T06:43:30.537Z,3.30
2022-10-29T06:44:32.679Z,3.63
2022-10-29T06:45:37.702Z,3.50
2022-10-29T06:46:41.702Z,3.50
2022-10-29T06:47:46.655Z,3.50
2022-10-29T06:48:48.798Z,3.83
2022-10-29T06:49:51.956Z,3.63
2022-10-29T06:50:54.222Z,3.50
2022-10-29T06:51:57.330Z,3.13
2022-10-29T06:53:00.707Z,3.60
2022-10-29T06:54:04.036Z,3.53
2022-10-29T06:55:07.867Z,4.30
2022-10-29T06:56:10.995Z,3.50
2022-10-29T06:57:13.279Z,4.30
2022-10-29T06:58:18.822Z,3.05
2022-10-29T06:59:21.001Z,3.60
2022-10-29T07:00:24.183Z,3.60
2022-10-29T07:01:31.736Z,3.30
2022-10-29T07:02:34.186Z,3.72
2022-10-29T07:03:37.461Z,3.85
2022-10-29T07:04:39.717Z,3.97
2022-10-29T07:05:43.304Z,4.63
2022-10-29T07:06:45.474Z,3.28
2022-10-29T07:07:48.812Z,4.38
2022-10-29T07:08:50.955Z,3.90
2022-10-29T07:09:54.210Z,3.90
2022-10-29T07:10:57.071Z,3.95
2022-10-29T07:12:00.199Z,3.80
2022-10-29T07:13:02.667Z,3.25
2022-10-29T07:14:06.106Z,3.80
2022-10-29T07:15:09.030Z,4.18
2022-10-29T07:16:12.385Z,4.70
2022-10-29T07:17:16.011Z,4.18
2022-10-29T07:18:19.304Z,4.68
2022-10-29T07:19:21.566Z,5.38
2022-10-29T07:20:24.966Z,3.85
2022-10-29T07:21:28.205Z,3.65
2022-10-29T07:22:34.719Z,4.03
2022-10-29T07:23:38.263Z,5.30
2022-10-29T07:24:40.481Z,4.93
2022-10-29T07:25:44.264Z,5.55
2022-10-29T07:26:47.558Z,4.63
2022-10-29T07:27:50.280Z,4.53
2022-10-29T07:28:57.950Z,4.85
2022-10-29T07:30:00.157Z,4.68
2022-10-29T07:31:03.474Z,4.00
2022-10-29T07:32:05.975Z,4.18
2022-10-29T07:33:11.099Z,4.70
2022-10-29T07:34:13.348Z,4.22
2022-10-29T07:35:16.681Z,4.30
2022-10-29T07:36:19.085Z,4.00
2022-10-29T07:37:22.272Z,4.75
2022-10-29T07:38:25.855Z,4.15
2022-10-29T07:39:28.086Z,4.28
2022-10-29T07:40:31.338Z,3.78
2022-10-29T07:41:34.035Z,4.30
2022-10-29T07:42:37.251Z,4.45
2022-10-29T07:43:39.369Z,4.23
2022-10-29T07:44:42.705Z,4.38
2022-10-29T07:45:46.352Z,4.05
2022-10-29T07:46:49.726Z,4.30
2022-10-29T07:48:02.776Z,4.30
2022-10-29T07:49:08.138Z,3.90
2022-10-29T07:50:10.890Z,4.53
2022-10-29T07:51:14.186Z,4.40
2022-10-29T07:52:16.371Z,4.75
2022-10-29T07:53:19.735Z,4.32
2022-10-29T07:54:21.891Z,4.07
2022-10-29T07:55:25.228Z,4.32
2022-10-29T07:56:27.362Z,4.28
2022-10-29T07:57:30.664Z,4.07
2022-10-29T07:58:33.107Z,4.50
2022-10-29T07:59:36.324Z,4.38
2022-10-29T08:00:40.692Z,4.25
2022-10-29T08:01:44.057Z,4.22
2022-10-29T08:02:52.414Z,4.07
2022-10-29T08:03:55.653Z,3.97
2022-10-29T08:04:59.312Z,4.23
2022-10-29T08:06:02.598Z,4.32
2022-10-29T08:07:04.870Z,4.00
2022-10-29T08:08:08.407Z,4.00
2022-10-29T08:09:11.428Z,3.67
2022-10-29T08:10:14.859Z,4.57
2022-10-29T08:11:17.011Z,3.97
2022-10-29T08:12:21.406Z,4.00
2022-10-29T08:13:23.555Z,3.90
2022-10-29T08:14:26.883Z,4.75
2022-10-29T08:15:30.561Z,3.93
2022-10-29T08:16:33.757Z,4.13
2022-10-29T08:17:36.127Z,3.50
2022-10-29T08:18:39.397Z,4.18
2022-10-29T08:19:41.656Z,3.90
2022-10-29T08:20:47.370Z,3.95
2022-10-29T08:21:49.570Z,4.03
2022-10-29T08:22:52.804Z,4.13
2022-10-29T08:23:54.956Z,4.05
2022-10-29T08:24:58.108Z,4.15
2022-10-29T08:26:00.426Z,4.40
2022-10-29T08:27:03.761Z,4.25
2022-10-29T08:28:07.107Z,4.45
2022-10-29T08:29:10.353Z,4.55
2022-10-29T08:30:14.274Z,5.00
2022-10-29T08:31:17.585Z,4.40
2022-10-29T08:32:19.691Z,4.63
2022-10-29T08:33:22.915Z,5.03
2022-10-29T08:34:25.055Z,4.40
2022-10-29T08:35:28.843Z,5.20
2022-10-29T08:36:33.527Z,4.13
2022-10-29T08:37:36.773Z,4.53
2022-10-29T08:38:40.117Z,4.63
2022-10-29T08:39:42.386Z,4.82
2022-10-29T08:41:01.460Z,4.55
2022-10-29T08:42:17.106Z,4.95
2022-10-29T08:43:44.602Z,5.25
2022-10-29T08:45:05.119Z,4.60
2022-10-29T08:46:19.645Z,4.43
2022-10-29T08:47:24.546Z,4.50
2022-10-29T08:48:40.259Z,4.80
2022-10-29T08:49:47.770Z,4.78
2022-10-29T08:50:57.082Z,4.95
2022-10-29T08:52:08.091Z,5.43
2022-10-29T08:53:26.700Z,5.53
2022-10-29T08:54:38.990Z,4.95
2022-10-29T08:55:41.259Z,4.80
2022-10-29T08:56:48.504Z,4.93
2022-10-29T08:57:56.504Z,4.72
2022-10-29T08:59:03.955Z,4.68
2022-10-29T09:00:10.056Z,5.03
2022-10-29T09:01:13.182Z,5.15
2022-10-29T09:02:19.167Z,5.57
2022-10-29T09:03:21.755Z,5.57
2022-10-29T09:04:26.993Z,4.78
2022-10-29T09:05:39.273Z,5.20
2022-10-29T09:06:49.929Z,5.95
2022-10-29T09:08:06.920Z,4.18
2022-10-29T09:09:29.251Z,5.63
2022-10-29T09:10:41.414Z,5.30
2022-10-29T09:11:56.474Z,5.57
2022-10-29T09:13:22.375Z,5.05
2022-10-29T09:14:55.665Z,4.82
2022-10-29T09:16:26.959Z,4.97
2022-10-29T09:17:36.071Z,5.20
2022-10-29T09:18:56.729Z,4.97
2022-10-29T09:20:08.408Z,5.22
2022-10-29T09:21:27.280Z,5.25
2022-10-29T09:22:36.635Z,4.95
2022-10-29T09:24:03.084Z,4.38
2022-10-29T09:25:16.073Z,5.20
2022-10-29T09:26:27.578Z,5.32
2022-10-29T09:27:43.371Z,5.40
2022-10-29T09:29:11.712Z,4.90
2022-10-29T09:30:16.923Z,5.43
2022-10-29T09:31:26.971Z,4.93
2022-10-29T09:32:34.280Z,4.78
2022-10-29T09:33:39.716Z,5.28
2022-10-29T09:34:49.126Z,5.53
2022-10-29T09:35:56.041Z,4.80
2022-10-29T09:36:58.494Z,5.43
2022-10-29T09:38:08.936Z,5.53
2022-10-29T09:39:14.579Z,5.80
2022-10-29T09:40:29.065Z,5.10
2022-10-29T09:41:33.751Z,5.00
2022-10-29T09:42:39.638Z,5.78
2022-10-29T09:43:51.923Z,5.40
2022-10-29T09:44:56.644Z,5.65
2022-10-29T09:46:09.291Z,5.20
2022-10-29T09:47:25.145Z,5.03
2022-10-29T09:48:34.183Z,5.27
2022-10-29T09:49:55.584Z,5.18
2022-10-29T09:51:09.722Z,5.40
2022-10-29T09:52:19.273Z,5.32
2022-10-29T09:53:21.510Z,5.70
2022-10-29T09:54:29.301Z,4.60
2022-10-29T09:55:40.008Z,5.25
2022-10-29T09:56:43.815Z,5.47
2022-10-29T09:57:47.280Z,5.70
2022-10-29T09:58:55.548Z,4.70
2022-10-29T10:00:01.862Z,5.20
2022-10-29T10:01:05.374Z,5.07
2022-10-29T10:02:26.995Z,5.25
2022-10-29T10:03:35.259Z,5.05
2022-10-29T10:04:45.681Z,5.38
2022-10-29T10:05:59.686Z,5.60
2022-10-29T10:07:06.250Z,5.78
2022-10-29T10:08:12.196Z,5.78
2022-10-29T10:09:14.499Z,6.57
2022-10-29T10:10:24.239Z,6.30
2022-10-29T10:11:31.331Z,6.70
2022-10-29T10:12:47.270Z,6.15
2022-10-29T10:13:54.391Z,7.25
2022-10-29T10:15:08.987Z,6.13
2022-10-29T10:16:11.299Z,6.15
2022-10-29T10:17:14.544Z,5.53
2022-10-29T10:18:19.241Z,6.40
2022-10-29T10:19:27.488Z,5.72
2022-10-29T10:20:36.100Z,6.20
2022-10-29T10:21:39.455Z,6.20
2022-10-29T10:22:47.416Z,6.50
2022-10-29T10:23:52.757Z,5.80
2022-10-29T10:24:54.952Z,5.80
2022-10-29T10:26:03.971Z,6.60
2022-10-29T10:27:26.181Z,6.10
2022-10-29T10:28:31.546Z,5.90
2022-10-29T10:29:33.696Z,5.82
2022-10-29T10:30:37.044Z,6.32
2022-10-29T10:31:39.648Z,6.13
2022-10-29T10:32:42.988Z,6.63
2022-10-29T10:33:49.871Z,6.87
2022-10-29T10:34:53.184Z,6.25
2022-10-29T10:35:55.606Z,6.35
2022-10-29T10:37:05.439Z,6.15
2022-10-29T10:38:09.569Z,5.70
2022-10-29T10:39:26.299Z,6.28
2022-10-29T10:40:28.859Z,6.40
2022-10-29T10:41:36.800Z,6.57
2022-10-29T10:42:43.540Z,5.90
2022-10-29T10:43:48.599Z,7.07
2022-10-29T10:44:54.591Z,6.63
2022-10-29T10:46:00.437Z,6.43
2022-10-29T10:47:08.651Z,6.28
2022-10-29T10:48:15.720Z,6.65
2022-10-29T10:49:22.477Z,6.60
2022-10-29T10:50:29.844Z,6.13
2022-10-29T10:51:35.103Z,6.60
2022-10-29T10:52:37.682Z,6.75
2022-10-29T10:53:42.648Z,6.25
2022-10-29T10:54:47.033Z,6.38
2022-10-29T10:55:53.519Z,6.33
2022-10-29T10:57:02.413Z,6.13
2022-10-29T10:58:12.561Z,6.30
2022-10-29T10:59:18.795Z,6.07
2022-10-29T11:00:23.134Z,6.35
2022-10-29T11:01:32.563Z,5.75
2022-10-29T11:02:46.871Z,5.68
2022-10-29T11:03:55.902Z,6.05
2022-10-29T11:05:05.165Z,5.95
2022-10-29T11:06:14.464Z,5.97
2022-10-29T11:07:19.209Z,5.40
2022-10-29T11:08:25.702Z,5.18
2022-10-29T11:09:34.992Z,5.72
2022-10-29T11:10:44.651Z,5.53
2022-10-29T11:11:58.735Z,5.25
2022-10-29T11:13:11.839Z,5.25
2022-10-29T11:14:19.470Z,5.35
2022-10-29T11:15:33.804Z,5.80
2022-10-29T11:16:42.930Z,5.35
2022-10-29T11:17:54.308Z,5.60
2022-10-29T11:19:02.608Z,5.90
2022-10-29T11:20:15.075Z,5.50
2022-10-29T11:21:23.140Z,6.13
2022-10-29T11:22:32.694Z,5.78
2022-10-29T11:23:46.875Z,5.50
2022-10-29T11:24:56.720Z,4.90
2022-10-29T11:26:08.267Z,5.32
2022-10-29T11:27:23.179Z,6.18
2022-10-29T11:28:34.819Z,5.93
2022-10-29T11:29:49.104Z,5.38
2022-10-29T11:30:59.565Z,5.73
2022-10-29T11:32:10.588Z,5.45
2022-10-29T11:33:22.021Z,5.70
2022-10-29T11:34:31.700Z,5.82
2022-10-29T11:35:44.596Z,5.50
2022-10-29T11:37:04.020Z,6.55
2022-10-29T11:38:12.470Z,5.35
2022-10-29T11:39:22.898Z,5.03
2022-10-29T11:40:38.161Z,5.97
2022-10-29T11:41:47.818Z,5.82
2022-10-29T11:42:51.360Z,5.80
2022-10-29T11:43:55.261Z,6.13
2022-10-29T11:44:59.823Z,6.47
2022-10-29T11:46:13.388Z,5.93
2022-10-29T11:47:34.321Z,6.53
2022-10-29T11:48:52.197Z,6.55
2022-10-29T11:50:16.107Z,5.95
2022-10-29T11:51:28.894Z,5.90
2022-10-29T11:52:39.290Z,6.75
2022-10-29T11:53:57.980Z,6.82
2022-10-29T11:55:15.654Z,6.80
2022-10-29T11:56:26.375Z,5.90
2022-10-29T11:57:35.678Z,6.10
2022-10-29T11:58:44.772Z,6.50
2022-10-29T12:00:05.274Z,7.10
2022-10-29T12:01:17.410Z,7.30
2022-10-29T12:02:31.513Z,7.15
2022-10-29T12:03:55.788Z,6.85
2022-10-29T12:05:03.628Z,7.55
2022-10-29T12:06:14.884Z,7.53
2022-10-29T12:07:33.948Z,7.03
2022-10-29T12:08:51.529Z,7.13
2022-10-29T12:10:09.255Z,7.47
2022-10-29T12:11:18.216Z,7.13
2022-10-29T12:12:26.775Z,7.55
2022-10-29T12:13:42.339Z,6.85
2022-10-29T12:14:50.804Z,7.65
2022-10-29T12:16:09.102Z,6.85
2022-10-29T12:17:16.097Z,7.55
2022-10-29T12:18:29.265Z,8.23
2022-10-29T12:19:45.902Z,7.10
2022-10-29T12:20:55.288Z,7.95
2022-10-29T12:22:07.134Z,7.75
2022-10-29T12:23:25.466Z,7.75
2022-10-29T12:24:46.662Z,7.07
2022-10-29T12:25:59.689Z,8.00
2022-10-29T12:27:13.340Z,7.70
2022-10-29T12:28:26.973Z,7.97
2022-10-29T12:29:37.383Z,7.65
2022-10-29T12:30:49.138Z,7.78
2022-10-29T12:31:59.905Z,8.13
2022-10-29T12:33:09.415Z,7.40
2022-10-29T12:34:24.191Z,7.85
2022-10-29T12:35:33.726Z,7.85
2022-10-29T12:36:43.997Z,7.55
2022-10-29T12:37:57.258Z,7.78
2022-10-29T12:39:01.720Z,8.20
2022-10-29T12:40:14.200Z,7.78
2022-10-29T12:41:22.578Z,7.80
2022-10-29T12:42:27.218Z,7.97
2022-10-29T12:43:31.443Z,7.63
2022-10-29T12:44:45.117Z,7.90
2022-10-29T12:46:18.997Z,8.65
2022-10-29T12:47:27.980Z,7.78
2022-10-29T12:48:39.099Z,7.75
2022-10-29T12:49:56.863Z,7.80
2022-10-29T12:51:07.010Z,8.57
2022-10-29T12:52:17.837Z,8.05
2022-10-29T12:53:30.344Z,8.20
2022-10-29T12:54:41.117Z,7.88
2022-10-29T12:55:46.714Z,8.03
2022-10-29T12:56:50.600Z,8.38
2022-10-29T12:57:54.154Z,8.05
2022-10-29T12:58:57.400Z,8.05
2022-10-29T13:00:39.208Z,8.57
2022-10-29T13:03:12.613Z,8.10
2022-10-29T13:04:29.679Z,8.65
2022-10-29T13:05:42.707Z,7.95
2022-10-29T13:06:56.059Z,7.50
2022-10-29T13:08:28.700Z,7.93
2022-10-29T13:09:33.565Z,7.85
2022-10-29T13:10:55.470Z,7.32
2022-10-29T13:12:00.251Z,7.70
2022-10-29T13:13:05.729Z,7.57
2022-10-29T13:14:09.075Z,7.38
2022-10-29T13:15:15.602Z,7.88
2022-10-29T13:16:22.934Z,7.22
2022-10-29T13:17:30.825Z,8.13
2022-10-29T13:18:45.746Z,8.15
2022-10-29T13:19:52.592Z,7.93
2022-10-29T13:20:55.424Z,8.13
2022-10-29T13:22:09.873Z,7.78
2022-10-29T13:23:35.260Z,8.20
2022-10-29T13:24:38.604Z,8.32
2022-10-29T13:25:48.814Z,7.63
2022-10-29T13:26:57.517Z,8.50
2022-10-29T13:28:00.206Z,9.00
2022-10-29T13:29:03.497Z,8.55
2022-10-29T13:30:22.856Z,7.75
2022-10-29T13:31:49.219Z,8.03
2022-10-29T13:32:53.587Z,8.20
2022-10-29T13:33:57.477Z,8.13
2022-10-29T13:35:01.975Z,8.25
2022-10-29T13:36:05.652Z,8.07
2022-10-29T13:37:54.740Z,7.97
2022-10-29T13:39:08.226Z,8.25
2022-10-29T13:41:03.534Z,7.75
2022-10-29T13:42:14.140Z,8.13
2022-10-29T13:43:18.851Z,7.95
2022-10-29T13:44:24.713Z,8.17
2022-10-29T13:45:27.353Z,8.23
2022-10-29T13:46:50.576Z,7.63
2022-10-29T13:47:54.954Z,7.70
2022-10-29T13:49:03.395Z,8.10
2022-10-29T13:50:07.511Z,7.68
2022-10-29T13:51:15.726Z,7.80
2022-10-29T13:52:22.093Z,7.40
2022-10-29T13:53:30.588Z,8.30
2022-10-29T13:54:43.312Z,7.75
2022-10-29T13:55:46.340Z,7.90
2022-10-29T13:56:54.551Z,7.57
2022-10-29T13:58:04.109Z,7.65
2022-10-29T13:59:18.578Z,7.70
2022-10-29T14:00:22.979Z,7.05
2022-10-29T14:01:25.370Z,7.72
2022-10-29T14:02:39.652Z,8.10
2022-10-29T14:03:54.849Z,7.47
2022-10-29T14:05:05.293Z,8.48
2022-10-29T14:06:13.946Z,7.68
2022-10-29T14:07:22.524Z,7.87
2022-10-29T14:08:33.406Z,7.90
2022-10-29T14:09:44.153Z,7.85
2022-10-29T14:10:49.924Z,8.30
2022-10-29T14:11:58.300Z,8.57
2022-10-29T14:13:12.164Z,8.45
2022-10-29T14:14:30.140Z,8.60
2022-10-29T14:15:34.738Z,7.95
2022-10-29T14:16:37.200Z,8.35
2022-10-29T14:17:40.622Z,8.00
2022-10-29T14:18:44.092Z,7.97
2022-10-29T14:19:48.715Z,7.82
2022-10-29T14:20:58.146Z,7.85
2022-10-29T14:22:00.385Z,8.73
2022-10-29T14:23:09.415Z,9.40
2022-10-29T14:24:15.543Z,8.23
2022-10-29T14:25:31.748Z,8.65
2022-10-29T14:26:37.084Z,8.23
2022-10-29T14:27:39.424Z,8.43
2022-10-29T14:28:42.891Z,8.80
2022-10-29T14:29:45.108Z,8.83
2022-10-29T14:30:50.274Z,8.35
2022-10-29T14:32:06.640Z,9.32
2022-10-29T14:33:26.710Z,8.82
2022-10-29T14:34:30.053Z,8.77
2022-10-29T14:35:32.465Z,8.20
2022-10-29T14:36:41.128Z,8.23
2022-10-29T14:37:47.312Z,8.55
2022-10-29T14:38:54.201Z,8.70
2022-10-29T14:40:01.129Z,8.05
2022-10-29T14:41:03.628Z,9.03
2022-10-29T14:42:15.650Z,9.13
2022-10-29T14:43:25.406Z,8.95
2022-10-29T14:44:30.885Z,8.45
2022-10-29T14:45:33.253Z,8.57
2022-10-29T14:46:38.132Z,9.80
2022-10-29T14:47:40.418Z,9.07
2022-10-29T14:48:55.053Z,9.13
2022-10-29T14:50:00.931Z,9.00
2022-10-29T14:51:04.514Z,9.02
2022-10-29T14:52:23.311Z,8.80
2022-10-29T14:53:32.247Z,8.68
2022-10-29T14:54:39.363Z,8.85
2022-10-29T14:55:49.561Z,8.77
2022-10-29T14:56:58.612Z,8.80
2022-10-29T14:58:05.275Z,8.55
2022-10-29T14:59:19.776Z,8.82